Time;durP1;ratioP1;P1;durP2;ratioP2;P2;SDS_P1;SDS_P2;PMS_P1;PMS_P2;Temp;Humidity;BMP_temperature;BMP_pressure;BME280_temperature;BME280_humidity;BME280_pressure;Samples;Min_cycle;Max_cycle;Signal;HPM_P1;HPM_P2
2023/08/26 00:02:07;;;;;;;;;;;23.50;1.00;;;;;;4975606;28;20033;-63
2023/08/26 00:04:34;;;;;;;;;;;23.50;1.00;;;;;;4958114;28;20386;-63
2023/08/26 00:07:01;;;;;;;;;;;23.50;1.00;;;;;;4956108;29;19936;-63
2023/08/26 00:09:28;;;;;;;;;;;23.50;1.00;;;;;;4955639;28;20016;-63
2023/08/26 00:11:55;;;;;;;;;;;23.50;1.00;;;;;;4955968;29;19926;-63
2023/08/26 00:14:21;;;;;;;;;;;23.50;1.00;;;;;;4956013;29;19926;-64
2023/08/26 00:16:48;;;;;;;;;;;23.50;1.00;;;;;;4948077;29;20453;-63
2023/08/26 00:19:16;;;;;;;;;;;23.50;1.00;;;;;;4955986;29;20342;-64
2023/08/26 00:21:43;;;;;;;;;;;23.50;1.00;;;;;;4956156;29;20390;-63
2023/08/26 00:24:11;;;;;;;;;;;23.50;1.00;;;;;;4955770;29;19985;-63
2023/08/26 00:26:38;;;;;;;;;;;23.50;1.00;;;;;;4955588;29;20025;-63
2023/08/26 00:29:06;;;;;;;;;;;23.50;1.00;;;;;;5027263;23;19984;-63
2023/08/26 00:31:32;;;;;;;;;;;23.50;1.00;;;;;;4970105;28;19926;-62
2023/08/26 00:34:02;;;;;;;;;;;23.40;1.00;;;;;;4957406;28;19926;-62
2023/08/26 00:36:30;;;;;;;;;;;23.50;1.00;;;;;;4942568;29;20351;-63
2023/08/26 00:38:57;;;;;;;;;;;23.50;1.00;;;;;;4938260;29;19965;-63
2023/08/26 00:41:24;;;;;;;;;;;23.40;1.00;;;;;;4938433;29;19930;-63
2023/08/26 00:43:51;;;;;;;;;;;23.40;1.00;;;;;;4938077;29;19980;-63
2023/08/26 00:46:18;;;;;;;;;;;23.40;1.00;;;;;;4955372;28;20453;-63
2023/08/26 00:48:46;;;;;;;;;;;23.40;1.00;;;;;;4937910;29;19927;-63
2023/08/26 00:51:13;;;;;;;;;;;23.40;1.00;;;;;;4937824;29;20461;-63
2023/08/26 00:53:40;;;;;;;;;;;23.40;1.00;;;;;;4937723;29;20311;-63
2023/08/26 00:56:06;;;;;;;;;;;23.40;1.00;;;;;;4937633;29;19931;-63
2023/08/26 00:58:34;;;;;;;;;;;23.40;1.00;;;;;;4937655;29;20297;-63
2023/08/26 01:01:01;;;;;;;;;;;23.40;1.00;;;;;;4922723;29;19973;-63
2023/08/26 01:03:28;;;;;;;;;;;23.40;1.00;;;;;;4937541;29;20017;-63
2023/08/26 01:05:55;;;;;;;;;;;23.40;1.00;;;;;;4937379;29;19927;-63
2023/08/26 01:08:22;;;;;;;;;;;23.40;1.00;;;;;;4937713;29;19935;-63
2023/08/26 01:10:49;;;;;;;;;;;23.40;1.00;;;;;;4954681;29;20371;-63
2023/08/26 01:13:19;;;;;;;;;;;23.40;1.00;;;;;;4954725;29;19982;-63
2023/08/26 01:15:49;;;;;;;;;;;23.40;1.00;;;;;;4937385;29;19933;-63
2023/08/26 01:18:16;;;;;;;;;;;23.40;1.00;;;;;;4937436;29;19981;-63
2023/08/26 01:20:43;;;;;;;;;;;23.40;1.00;;;;;;4936677;29;19926;-63
2023/08/26 01:23:19;;;;;;;;;;;23.40;1.00;;;;;;4954546;29;20018;-63
2023/08/26 01:25:46;;;;;;;;;;;23.30;1.00;;;;;;4954541;28;20022;-63
2023/08/26 01:28:13;;;;;;;;;;;23.30;1.00;;;;;;4937301;29;19926;-65
2023/08/26 01:33:36;;;;;;;;;;;23.30;1.00;;;;;;4971369;28;19933;-64
2023/08/26 01:36:04;;;;;;;;;;;23.30;1.00;;;;;;4988893;28;20028;-64
2023/08/26 01:38:31;;;;;;;;;;;23.30;1.00;;;;;;4976161;28;19961;-64
2023/08/26 01:40:59;;;;;;;;;;;23.30;1.00;;;;;;4955919;28;19934;-65
2023/08/26 01:43:26;;;;;;;;;;;23.30;1.00;;;;;;4967803;28;20026;-65
2023/08/26 01:45:52;;;;;;;;;;;23.30;1.00;;;;;;4988413;28;19926;-64
2023/08/26 01:48:19;;;;;;;;;;;23.30;1.00;;;;;;4976147;28;19962;-64
2023/08/26 01:50:48;;;;;;;;;;;23.30;1.00;;;;;;4974500;28;20302;-64
2023/08/26 01:53:14;;;;;;;;;;;23.30;1.00;;;;;;4987958;28;19936;-64
2023/08/26 01:55:41;;;;;;;;;;;23.30;1.00;;;;;;4973174;28;20293;-64
2023/08/26 01:58:08;;;;;;;;;;;23.30;1.00;;;;;;4987967;28;19926;-64
2023/08/26 02:00:35;;;;;;;;;;;23.30;1.00;;;;;;4972035;28;19953;-64
2023/08/26 02:05:57;;;;;;;;;;;23.30;1.00;;;;;;4989308;28;19996;-63
2023/08/26 02:08:24;;;;;;;;;;;23.30;1.00;;;;;;4975324;28;19926;-63
2023/08/26 02:10:54;;;;;;;;;;;23.20;1.00;;;;;;4967112;28;20033;-63
2023/08/26 02:13:21;;;;;;;;;;;23.20;1.00;;;;;;4975068;28;20014;-63
2023/08/26 02:15:48;;;;;;;;;;;23.20;1.00;;;;;;4975144;28;20309;-63
2023/08/26 02:18:15;;;;;;;;;;;23.20;1.00;;;;;;4992772;28;19930;-63
2023/08/26 02:20:44;;;;;;;;;;;23.20;1.00;;;;;;4975068;28;19926;-63
2023/08/26 02:23:12;;;;;;;;;;;23.20;1.00;;;;;;4974977;28;19925;-63
2023/08/26 02:25:39;;;;;;;;;;;23.20;1.00;;;;;;4975006;28;19932;-64
2023/08/26 02:28:06;;;;;;;;;;;23.20;1.00;;;;;;4975073;28;20380;-64
2023/08/26 02:30:33;;;;;;;;;;;23.20;1.00;;;;;;4974897;28;19953;-64
2023/08/26 02:33:02;;;;;;;;;;;23.20;1.00;;;;;;4986319;28;19951;-63
2023/08/26 02:38:32;;;;;;;;;;;23.10;1.00;;;;;;5106340;23;19937;-63
2023/08/26 02:41:00;;;;;;;;;;;23.10;1.00;;;;;;4978478;28;19975;-63
2023/08/26 02:43:26;;;;;;;;;;;23.10;1.00;;;;;;4995795;28;19926;-64
2023/08/26 02:45:58;;;;;;;;;;;23.10;1.00;;;;;;4968148;28;20367;-64
2023/08/26 02:48:26;;;;;;;;;;;23.10;1.00;;;;;;4959251;28;20687;-64
2023/08/26 02:50:59;;;;;;;;;;;23.10;1.00;;;;;;4958929;28;19930;-64
2023/08/26 02:53:27;;;;;;;;;;;23.10;1.00;;;;;;4958956;28;20389;-64
2023/08/26 02:55:54;;;;;;;;;;;23.10;1.00;;;;;;4951017;28;19926;-64
2023/08/26 02:58:21;;;;;;;;;;;23.10;1.00;;;;;;4959114;28;19926;-64
2023/08/26 03:00:48;;;;;;;;;;;23.10;1.00;;;;;;4958945;28;20016;-64
2023/08/26 03:03:15;;;;;;;;;;;23.10;1.00;;;;;;4958809;28;19926;-64
2023/08/26 03:05:42;;;;;;;;;;;23.10;1.00;;;;;;4976329;28;19930;-64
2023/08/26 03:08:09;;;;;;;;;;;23.00;1.00;;;;;;4958891;28;19960;-64
2023/08/26 03:10:36;;;;;;;;;;;23.00;1.00;;;;;;4973686;28;20021;-63
2023/08/26 03:13:03;;;;;;;;;;;23.00;1.00;;;;;;4955899;28;20027;-63
2023/08/26 03:15:30;;;;;;;;;;;23.00;1.00;;;;;;4953742;28;20283;-63
2023/08/26 03:17:57;;;;;;;;;;;23.00;1.00;;;;;;4958830;28;19957;-63
2023/08/26 03:20:24;;;;;;;;;;;23.00;1.00;;;;;;4975935;28;20456;-63
2023/08/26 03:22:51;;;;;;;;;;;23.00;1.00;;;;;;4958360;28;19926;-63
2023/08/26 03:25:18;;;;;;;;;;;23.00;1.00;;;;;;4958591;28;19934;-63
2023/08/26 03:27:44;;;;;;;;;;;23.00;1.00;;;;;;4958664;28;19973;-63
2023/08/26 03:30:11;;;;;;;;;;;23.00;1.00;;;;;;4958406;28;19933;-63
2023/08/26 03:32:38;;;;;;;;;;;23.00;1.00;;;;;;4958247;28;19930;-63
2023/08/26 03:35:06;;;;;;;;;;;23.00;1.00;;;;;;4958364;28;19989;-63
2023/08/26 03:37:33;;;;;;;;;;;22.90;1.00;;;;;;4958170;28;20270;-63
2023/08/26 03:40:00;;;;;;;;;;;22.90;1.00;;;;;;4958361;28;19932;-63
2023/08/26 03:42:27;;;;;;;;;;;22.90;1.00;;;;;;4975469;28;19981;-64
2023/08/26 03:44:53;;;;;;;;;;;22.90;1.00;;;;;;4957444;28;19937;-64
2023/08/26 03:47:21;;;;;;;;;;;22.90;1.00;;;;;;4975467;28;19973;-63
2023/08/26 03:49:48;;;;;;;;;;;22.90;1.00;;;;;;4958087;28;19982;-63
2023/08/26 03:52:14;;;;;;;;;;;22.90;1.00;;;;;;4975192;28;19957;-63
2023/08/26 03:54:41;;;;;;;;;;;22.90;1.00;;;;;;4957968;28;20412;-63
2023/08/26 03:57:08;;;;;;;;;;;22.90;1.00;;;;;;4956907;28;19970;-63
2023/08/26 03:59:35;;;;;;;;;;;22.90;1.00;;;;;;4953202;28;19926;-63
2023/08/26 04:02:02;;;;;;;;;;;22.90;1.00;;;;;;4957732;28;19996;-64
2023/08/26 04:04:29;;;;;;;;;;;22.80;1.00;;;;;;4957887;28;20301;-63
2023/08/26 04:06:57;;;;;;;;;;;22.80;1.00;;;;;;4957635;28;19930;-63
2023/08/26 04:09:23;;;;;;;;;;;22.80;1.00;;;;;;4957740;28;19930;-63
2023/08/26 04:12:27;;;;;;;;;;;22.80;1.00;;;;;;4954100;29;19980;-63
2023/08/26 04:14:53;;;;;;;;;;;22.80;1.00;;;;;;4943933;28;19933;-64
2023/08/26 04:17:20;;;;;;;;;;;22.80;1.00;;;;;;4954555;29;19966;-63
2023/08/26 04:19:47;;;;;;;;;;;22.80;1.00;;;;;;4954460;29;19926;-63
2023/08/26 04:22:15;;;;;;;;;;;22.80;1.00;;;;;;4955489;28;20025;-64
2023/08/26 04:24:41;;;;;;;;;;;22.80;1.00;;;;;;4954269;28;20297;-64
2023/08/26 04:27:08;;;;;;;;;;;22.80;1.00;;;;;;4954229;29;19926;-63
2023/08/26 04:29:35;;;;;;;;;;;22.80;1.00;;;;;;4954409;29;19930;-63
2023/08/26 04:32:02;;;;;;;;;;;22.80;1.00;;;;;;4969936;28;20310;-64
2023/08/26 04:34:29;;;;;;;;;;;22.80;1.00;;;;;;4954053;29;20319;-63
2023/08/26 04:36:55;;;;;;;;;;;22.80;1.00;;;;;;4953817;28;19938;-63
2023/08/26 04:39:22;;;;;;;;;;;22.70;1.00;;;;;;4953377;29;19933;-63
2023/08/26 04:41:49;;;;;;;;;;;22.70;1.00;;;;;;4953100;29;19961;-63
2023/08/26 04:44:17;;;;;;;;;;;22.80;1.00;;;;;;4953750;29;19978;-64
2023/08/26 04:46:44;;;;;;;;;;;22.70;1.00;;;;;;4953152;28;19926;-64
2023/08/26 04:49:11;;;;;;;;;;;22.70;1.00;;;;;;4953810;29;20446;-63
2023/08/26 04:51:38;;;;;;;;;;;22.70;1.00;;;;;;4953555;29;20370;-63
2023/08/26 04:54:05;;;;;;;;;;;22.70;1.00;;;;;;4953703;29;19933;-63
2023/08/26 04:56:32;;;;;;;;;;;22.70;1.00;;;;;;4952756;28;20025;-63
2023/08/26 04:58:58;;;;;;;;;;;22.70;1.00;;;;;;4953679;29;19930;-63
2023/08/26 05:01:25;;;;;;;;;;;22.70;1.00;;;;;;4954938;29;20303;-63
2023/08/26 05:03:52;;;;;;;;;;;22.70;1.00;;;;;;4937640;29;20002;-63
2023/08/26 05:06:19;;;;;;;;;;;22.70;1.00;;;;;;4937701;29;19965;-63
2023/08/26 05:08:45;;;;;;;;;;;22.70;1.00;;;;;;4954541;28;20382;-63
2023/08/26 05:11:12;;;;;;;;;;;22.70;1.00;;;;;;5113591;23;19925;-63
2023/08/26 05:13:39;;;;;;;;;;;22.70;1.00;;;;;;4987547;28;20451;-63
2023/08/26 05:16:06;;;;;;;;;;;22.70;1.00;;;;;;4975563;28;19926;-63
2023/08/26 05:18:33;;;;;;;;;;;22.70;1.00;;;;;;4975924;28;20463;-63
2023/08/26 05:21:00;;;;;;;;;;;22.60;1.00;;;;;;4975565;28;19926;-63
2023/08/26 05:23:27;;;;;;;;;;;22.70;1.00;;;;;;4975664;28;19930;-63
2023/08/26 05:25:53;;;;;;;;;;;22.70;1.00;;;;;;4975540;28;19930;-63
2023/08/26 05:28:20;;;;;;;;;;;22.60;1.00;;;;;;4967788;28;19926;-64
2023/08/26 05:30:47;;;;;;;;;;;22.60;1.00;;;;;;4975425;28;19964;-63
2023/08/26 05:33:15;;;;;;;;;;;22.60;1.00;;;;;;4975395;28;19956;-63
2023/08/26 05:35:42;;;;;;;;;;;22.60;1.00;;;;;;4975333;28;19980;-63
2023/08/26 05:38:09;;;;;;;;;;;22.60;1.00;;;;;;4975550;28;19926;-63
2023/08/26 05:40:36;;;;;;;;;;;22.60;1.00;;;;;;4975719;28;20317;-63
2023/08/26 05:43:04;;;;;;;;;;;22.60;1.00;;;;;;4976071;28;19976;-63
2023/08/26 05:45:34;;;;;;;;;;;22.60;1.00;;;;;;4975228;28;20024;-64
2023/08/26 05:48:01;;;;;;;;;;;22.60;1.00;;;;;;4975492;28;20338;-64
2023/08/26 05:50:31;;;;;;;;;;;22.60;1.00;;;;;;4975179;28;20415;-63
2023/08/26 05:52:58;;;;;;;;;;;22.60;1.00;;;;;;4975062;28;20390;-63
2023/08/26 05:55:25;;;;;;;;;;;22.60;1.00;;;;;;4975327;28;19984;-63
2023/08/26 05:57:51;;;;;;;;;;;22.60;1.00;;;;;;4975265;28;19926;-63
2023/08/26 06:00:18;;;;;;;;;;;22.60;1.00;;;;;;4975149;28;19933;-63
2023/08/26 06:02:49;;;;;;;;;;;22.60;1.00;;;;;;4966200;28;19962;-63
2023/08/26 06:05:17;;;;;;;;;;;22.60;1.00;;;;;;4947124;28;19926;-63
2023/08/26 06:07:47;;;;;;;;;;;22.60;1.00;;;;;;4957499;28;19933;-64
2023/08/26 06:10:14;;;;;;;;;;;22.50;1.00;;;;;;4982580;28;19927;-63
2023/08/26 06:15:38;;;;;;;;;;;22.50;1.00;;;;;;4973903;23;19933;-63
2023/08/26 06:18:05;;;;;;;;;;;22.50;1.00;;;;;;4951405;28;20279;-63
2023/08/26 06:20:32;;;;;;;;;;;22.50;1.00;;;;;;4944632;28;20375;-63
2023/08/26 06:22:59;;;;;;;;;;;22.50;1.00;;;;;;4949915;29;20059;-63
2023/08/26 06:25:27;;;;;;;;;;;22.50;1.00;;;;;;4951757;28;20021;-64
2023/08/26 06:27:53;;;;;;;;;;;22.50;1.00;;;;;;4942841;29;19930;-64
2023/08/26 06:30:22;;;;;;;;;;;22.50;1.00;;;;;;4950038;28;20460;-63
2023/08/26 06:32:49;;;;;;;;;;;22.40;1.00;;;;;;4959134;28;19926;-63
2023/08/26 06:35:17;;;;;;;;;;;22.40;1.00;;;;;;4943093;28;19933;-63
2023/08/26 06:37:45;;;;;;;;;;;22.50;1.00;;;;;;4953045;28;19926;-63
2023/08/26 06:40:13;;;;;;;;;;;22.50;1.00;;;;;;4945229;28;19926;-63
2023/08/26 06:42:41;;;;;;;;;;;22.40;1.00;;;;;;4976704;28;19926;-64
2023/08/26 06:45:13;;;;;;;;;;;22.50;1.00;;;;;;5063346;23;20375;-63
2023/08/26 06:47:43;;;;;;;;;;;22.50;1.00;;;;;;4965199;28;19973;-63
2023/08/26 06:50:10;;;;;;;;;;;22.40;1.00;;;;;;4959379;28;20305;-63
2023/08/26 06:52:37;;;;;;;;;;;22.40;1.00;;;;;;4976253;28;20348;-63
2023/08/26 06:55:04;;;;;;;;;;;22.40;1.00;;;;;;4976427;28;20455;-63
2023/08/26 06:57:31;;;;;;;;;;;22.40;1.00;;;;;;4975098;28;19926;-63
2023/08/26 06:59:58;;;;;;;;;;;22.40;1.00;;;;;;4976375;28;20473;-64
2023/08/26 07:02:25;;;;;;;;;;;22.40;1.00;;;;;;4976121;28;19926;-64
2023/08/26 07:04:51;;;;;;;;;;;22.40;1.00;;;;;;4976294;28;19926;-63
2023/08/26 07:07:18;;;;;;;;;;;22.40;1.00;;;;;;4966685;28;19954;-64
2023/08/26 07:09:45;;;;;;;;;;;22.40;1.00;;;;;;4975650;28;19926;-64
2023/08/26 07:12:12;;;;;;;;;;;22.40;1.00;;;;;;4975858;28;19930;-64
2023/08/26 07:14:39;;;;;;;;;;;22.40;1.00;;;;;;4976152;28;19981;-64
2023/08/26 07:17:06;;;;;;;;;;;22.40;1.00;;;;;;5384888;23;20021;-64
2023/08/26 07:19:33;;;;;;;;;;;22.40;1.00;;;;;;4974738;28;19962;-64
2023/08/26 07:22:00;;;;;;;;;;;22.40;1.00;;;;;;4975889;28;20017;-64
2023/08/26 07:24:27;;;;;;;;;;;22.40;1.00;;;;;;4975501;28;19930;-63
2023/08/26 07:26:53;;;;;;;;;;;22.40;1.00;;;;;;4970335;28;20273;-63
2023/08/26 07:29:20;;;;;;;;;;;22.40;1.00;;;;;;4971351;28;19926;-63
2023/08/26 07:31:47;;;;;;;;;;;22.30;1.00;;;;;;4972277;28;19940;-62
2023/08/26 07:34:13;;;;;;;;;;;22.30;1.00;;;;;;4972955;28;20429;-64
2023/08/26 07:36:40;;;;;;;;;;;22.30;1.00;;;;;;4972234;28;19926;-63
2023/08/26 07:39:08;;;;;;;;;;;22.20;1.00;;;;;;4966800;28;19940;-64
2023/08/26 07:41:35;;;;;;;;;;;22.20;1.00;;;;;;4970630;28;19933;-64
2023/08/26 07:44:03;;;;;;;;;;;22.20;1.00;;;;;;4973238;28;19930;-64
2023/08/26 07:46:29;;;;;;;;;;;22.20;1.00;;;;;;4971042;28;20025;-64
2023/08/26 07:48:59;;;;;;;;;;;22.10;1.00;;;;;;5213085;23;19935;-63
2023/08/26 07:51:26;;;;;;;;;;;22.10;1.00;;;;;;4958130;28;19927;-63
2023/08/26 07:53:52;;;;;;;;;;;22.10;1.00;;;;;;4966241;28;20029;-64
2023/08/26 07:56:19;;;;;;;;;;;22.20;1.00;;;;;;4961583;28;20390;-63
2023/08/26 07:58:46;;;;;;;;;;;22.10;1.00;;;;;;4956062;29;19973;-63
2023/08/26 08:01:13;;;;;;;;;;;22.20;1.00;;;;;;4955828;29;19936;-63
2023/08/26 08:03:40;;;;;;;;;;;22.20;1.00;;;;;;4955782;29;20441;-64
2023/08/26 08:06:07;;;;;;;;;;;22.20;1.00;;;;;;4953013;28;19949;-64
2023/08/26 08:08:33;;;;;;;;;;;22.20;1.00;;;;;;4950341;29;19934;-64
2023/08/26 08:11:00;;;;;;;;;;;22.20;1.00;;;;;;4950904;29;19926;-63
2023/08/26 08:13:27;;;;;;;;;;;22.10;1.00;;;;;;4935795;29;20272;-63
2023/08/26 08:15:53;;;;;;;;;;;22.10;1.00;;;;;;4948368;28;19949;-62
2023/08/26 08:18:20;;;;;;;;;;;22.10;1.00;;;;;;4940790;29;19930;-63
2023/08/26 08:23:30;;;;;;;;;;;22.10;1.00;;;;;;4954981;28;19934;-60
2023/08/26 08:25:57;;;;;;;;;;;22.20;1.00;;;;;;4955260;29;19926;-64
2023/08/26 08:28:23;;;;;;;;;;;22.20;1.00;;;;;;4954824;28;19969;-61
2023/08/26 08:30:50;;;;;;;;;;;22.20;1.00;;;;;;4953452;28;19982;-62
2023/08/26 08:33:17;;;;;;;;;;;22.20;1.00;;;;;;4954038;29;19926;-60
2023/08/26 08:35:44;;;;;;;;;;;22.20;1.00;;;;;;4955222;29;20359;-60
2023/08/26 08:38:10;;;;;;;;;;;22.10;1.00;;;;;;4954522;29;19926;-64
2023/08/26 08:40:38;;;;;;;;;;;22.10;1.00;;;;;;4954778;28;20445;-62
2023/08/26 08:43:06;;;;;;;;;;;22.10;1.00;;;;;;4954518;28;19930;-61
2023/08/26 08:45:33;;;;;;;;;;;22.10;1.00;;;;;;4954473;28;19974;-61
2023/08/26 08:48:00;;;;;;;;;;;22.10;1.00;;;;;;4953518;29;20279;-62
2023/08/26 08:50:27;;;;;;;;;;;22.20;1.00;;;;;;4954664;29;20248;-63
2023/08/26 08:52:56;;;;;;;;;;;22.20;1.00;;;;;;5022113;23;19949;-60
2023/08/26 08:55:23;;;;;;;;;;;22.20;1.00;;;;;;4971110;28;19926;-59
2023/08/26 08:57:51;;;;;;;;;;;22.20;1.00;;;;;;4972200;28;19981;-62
2023/08/26 09:00:19;;;;;;;;;;;22.20;1.00;;;;;;4973710;28;19969;-63
2023/08/26 09:02:46;;;;;;;;;;;22.20;1.00;;;;;;4973585;28;19926;-63
2023/08/26 09:05:14;;;;;;;;;;;22.20;1.00;;;;;;4972935;28;19926;-64
2023/08/26 09:07:41;;;;;;;;;;;22.20;1.00;;;;;;4972553;28;20382;-62
2023/08/26 09:10:11;;;;;;;;;;;22.20;1.00;;;;;;4972610;28;19925;-63
2023/08/26 09:12:38;;;;;;;;;;;22.20;1.00;;;;;;4970898;28;19930;-62
2023/08/26 09:15:05;;;;;;;;;;;22.20;1.00;;;;;;4972664;28;19927;-64
2023/08/26 09:17:32;;;;;;;;;;;22.30;1.00;;;;;;4973045;28;19926;-62
2023/08/26 09:20:00;;;;;;;;;;;22.30;1.00;;;;;;4972814;28;19926;-62
2023/08/26 09:25:23;;;;;;;;;;;22.30;1.00;;;;;;5203158;23;20450;-62
2023/08/26 09:27:50;;;;;;;;;;;22.30;1.00;;;;;;4957867;28;20012;-62
2023/08/26 09:30:19;;;;;;;;;;;22.30;1.00;;;;;;4965147;28;19926;-61
2023/08/26 09:32:48;;;;;;;;;;;22.30;1.00;;;;;;4950919;28;19930;-63
2023/08/26 09:35:15;;;;;;;;;;;22.30;1.00;;;;;;4961588;28;20394;-62
2023/08/26 09:38:02;;;;;;;;;;;22.30;1.00;;;;;;4949931;28;19926;-60
2023/08/26 09:40:29;;;;;;;;;;;22.30;1.00;;;;;;4962988;28;19934;-62
2023/08/26 09:42:56;;;;;;;;;;;22.30;1.00;;;;;;4953499;28;19926;-62
2023/08/26 09:45:23;;;;;;;;;;;22.30;1.00;;;;;;4951752;28;19942;-60
2023/08/26 09:47:51;;;;;;;;;;;22.30;1.00;;;;;;4960363;28;20385;-63
2023/08/26 09:50:28;;;;;;;;;;;22.30;1.00;;;;;;4960251;28;20393;-63
2023/08/26 09:52:54;;;;;;;;;;;22.30;1.00;;;;;;4955042;28;20355;-61
2023/08/26 09:58:17;;;;;;;;;;;22.30;1.00;;;;;;5087350;23;20313;-62
2023/08/26 10:00:47;;;;;;;;;;;22.30;1.00;;;;;;4974626;28;20456;-62
2023/08/26 10:03:15;;;;;;;;;;;22.30;1.00;;;;;;4974038;28;19980;-62
2023/08/26 10:05:42;;;;;;;;;;;22.30;1.00;;;;;;4983272;28;20153;-61
2023/08/26 10:08:10;;;;;;;;;;;22.30;1.00;;;;;;4983799;28;19926;-61
2023/08/26 10:10:47;;;;;;;;;;;22.30;1.00;;;;;;4986557;28;19926;-61
2023/08/26 10:13:15;;;;;;;;;;;22.30;1.00;;;;;;4977082;28;20032;-62
2023/08/26 10:15:43;;;;;;;;;;;22.30;1.00;;;;;;4985628;28;19926;-62
2023/08/26 10:18:16;;;;;;;;;;;22.40;1.00;;;;;;4992466;28;20396;-63
2023/08/26 10:20:44;;;;;;;;;;;22.40;1.00;;;;;;4984231;28;20306;-62
2023/08/26 10:23:12;;;;;;;;;;;22.40;1.00;;;;;;4986828;28;20028;-62
2023/08/26 10:25:39;;;;;;;;;;;22.40;1.00;;;;;;4989199;28;19926;-63
2023/08/26 10:30:53;;;;;;;;;;;22.40;1.00;;;;;;4950898;28;19933;-61
2023/08/26 10:33:20;;;;;;;;;;;22.40;1.00;;;;;;4952640;28;20004;-63
2023/08/26 10:35:59;;;;;;;;;;;22.40;1.00;;;;;;4950964;28;19926;-65
2023/08/26 10:38:26;;;;;;;;;;;22.40;1.00;;;;;;4950351;28;19926;-65
2023/08/26 10:41:06;;;;;;;;;;;22.40;1.00;;;;;;4953446;28;20345;-62
2023/08/26 10:43:33;;;;;;;;;;;22.40;1.00;;;;;;4950963;28;20400;-63
2023/08/26 10:46:01;;;;;;;;;;;22.40;1.00;;;;;;4953416;28;19927;-65
2023/08/26 10:48:27;;;;;;;;;;;22.40;1.00;;;;;;4950305;28;19927;-62
2023/08/26 10:50:58;;;;;;;;;;;22.40;1.00;;;;;;4953516;28;19937;-64
2023/08/26 10:53:25;;;;;;;;;;;22.40;1.00;;;;;;4954093;28;20025;-64
2023/08/26 10:55:53;;;;;;;;;;;22.40;1.00;;;;;;4956984;28;20021;-64
2023/08/26 10:58:20;;;;;;;;;;;22.40;1.00;;;;;;4956584;28;20398;-64
2023/08/26 11:03:47;;;;;;;;;;;22.40;1.00;;;;;;4952189;29;19942;-59
2023/08/26 11:06:19;;;;;;;;;;;22.40;1.00;;;;;;4950928;28;19927;-61
2023/08/26 11:08:53;;;;;;;;;;;22.40;1.00;;;;;;4954017;28;19934;-61
2023/08/26 11:11:20;;;;;;;;;;;22.40;1.00;;;;;;4955435;28;19930;-62
2023/08/26 11:13:47;;;;;;;;;;;22.40;1.00;;;;;;4955727;28;19941;-61
2023/08/26 11:16:14;;;;;;;;;;;22.40;1.00;;;;;;4949865;28;19926;-61
2023/08/26 11:18:44;;;;;;;;;;;22.40;1.00;;;;;;4953143;28;19949;-61
2023/08/26 11:21:12;;;;;;;;;;;22.40;1.00;;;;;;4952943;28;20394;-61
2023/08/26 11:23:39;;;;;;;;;;;22.40;1.00;;;;;;4956086;28;20406;-61
2023/08/26 11:26:07;;;;;;;;;;;22.50;1.00;;;;;;4956383;28;19927;-61
2023/08/26 11:28:34;;;;;;;;;;;22.40;1.00;;;;;;4949713;28;19969;-62
2023/08/26 11:31:01;;;;;;;;;;;22.40;1.00;;;;;;4949415;29;20021;-62
2023/08/26 11:33:52;;;;;;;;;;;22.50;1.00;;;;;;5164802;23;19998;31
2023/08/26 11:36:20;;;;;;;;;;;22.50;1.00;;;;;;4934587;29;19926;-62
2023/08/26 11:38:46;;;;;;;;;;;22.50;1.00;;;;;;4947769;29;19927;-62
2023/08/26 11:41:13;;;;;;;;;;;22.50;1.00;;;;;;4950526;29;19954;-62
2023/08/26 11:43:40;;;;;;;;;;;22.50;1.00;;;;;;4949891;29;20041;-62
2023/08/26 11:46:08;;;;;;;;;;;22.50;1.00;;;;;;4948136;29;20012;-62
2023/08/26 11:48:36;;;;;;;;;;;22.50;1.00;;;;;;4950974;29;19930;-61
2023/08/26 11:51:03;;;;;;;;;;;22.50;1.00;;;;;;4947195;29;19993;-61
2023/08/26 11:53:30;;;;;;;;;;;22.50;1.00;;;;;;4951932;29;19931;-60
2023/08/26 11:55:57;;;;;;;;;;;22.50;1.00;;;;;;4950959;29;19966;-62
2023/08/26 11:58:25;;;;;;;;;;;22.50;1.00;;;;;;4951355;29;19954;-61
2023/08/26 12:00:55;;;;;;;;;;;22.50;1.00;;;;;;4948323;29;19927;-60
2023/08/26 12:03:21;;;;;;;;;;;22.50;1.00;;;;;;4946735;29;19981;-61
2023/08/26 12:08:37;;;;;;;;;;;22.60;1.00;;;;;;5069585;23;20297;-61
2023/08/26 12:11:04;;;;;;;;;;;22.60;1.00;;;;;;4990230;28;20020;-61
2023/08/26 12:13:37;;;;;;;;;;;22.60;1.00;;;;;;4994165;28;19926;-62
2023/08/26 12:16:04;;;;;;;;;;;22.60;1.00;;;;;;4983505;28;19926;-60
2023/08/26 12:18:31;;;;;;;;;;;22.60;1.00;;;;;;4971528;28;19937;-60
2023/08/26 12:20:59;;;;;;;;;;;22.60;1.00;;;;;;4974577;28;19961;-61
2023/08/26 12:23:26;;;;;;;;;;;22.60;1.00;;;;;;4981107;28;19926;-60
2023/08/26 12:25:53;;;;;;;;;;;22.60;1.00;;;;;;4985654;28;20457;-61
2023/08/26 12:28:25;;;;;;;;;;;22.60;1.00;;;;;;4989664;28;20414;-60
2023/08/26 12:30:52;;;;;;;;;;;22.60;1.00;;;;;;4986224;28;19954;-60
2023/08/26 12:33:19;;;;;;;;;;;22.60;1.00;;;;;;4991197;28;19932;-61
2023/08/26 12:35:53;;;;;;;;;;;22.60;1.00;;;;;;4987304;28;20302;-61
2023/08/26 12:38:20;;;;;;;;;;;22.60;1.00;;;;;;4992628;28;19926;-59
2023/08/26 12:49:35;;;;;;;;;;;22.60;1.00;;;;;;5587430;23;19964;-62
2023/08/26 12:52:01;;;;;;;;;;;22.60;1.00;;;;;;4988789;28;19930;-60
2023/08/26 12:54:28;;;;;;;;;;;22.60;1.00;;;;;;4993498;28;20012;-60
2023/08/26 12:56:55;;;;;;;;;;;22.60;1.00;;;;;;4993315;28;20377;-60
2023/08/26 12:59:22;;;;;;;;;;;22.60;1.00;;;;;;4993794;28;20329;-60
2023/08/26 13:01:48;;;;;;;;;;;22.60;1.00;;;;;;4993031;28;19925;-59
2023/08/26 13:04:15;;;;;;;;;;;22.60;1.00;;;;;;4992920;28;20308;-61
2023/08/26 13:06:42;;;;;;;;;;;22.60;1.00;;;;;;4993116;28;19936;-61
2023/08/26 13:09:09;;;;;;;;;;;22.60;1.00;;;;;;4993067;28;19925;-61
2023/08/26 13:11:35;;;;;;;;;;;22.60;1.00;;;;;;4993196;28;19926;-61
2023/08/26 13:14:02;;;;;;;;;;;22.60;1.00;;;;;;4992504;28;19925;-61
2023/08/26 13:16:29;;;;;;;;;;;22.60;1.00;;;;;;4992393;28;19926;-60
2023/08/26 13:18:55;;;;;;;;;;;22.60;1.00;;;;;;4992812;28;20285;-60
2023/08/26 13:21:22;;;;;;;;;;;22.60;1.00;;;;;;4993000;28;19926;-61
2023/08/26 13:23:49;;;;;;;;;;;22.60;1.00;;;;;;4992581;28;20370;-62
2023/08/26 13:26:15;;;;;;;;;;;22.60;1.00;;;;;;4992688;28;19948;-60
2023/08/26 13:28:43;;;;;;;;;;;22.60;1.00;;;;;;4984878;28;19926;-61
2023/08/26 13:31:10;;;;;;;;;;;22.60;1.00;;;;;;4984447;28;19980;-60
2023/08/26 13:33:37;;;;;;;;;;;22.60;1.00;;;;;;4990428;28;19925;-61
2023/08/26 13:36:05;;;;;;;;;;;22.60;1.00;;;;;;4984793;28;20057;-62
2023/08/26 13:38:32;;;;;;;;;;;22.60;1.00;;;;;;4990130;28;19968;-57
2023/08/26 13:40:59;;;;;;;;;;;22.60;1.00;;;;;;4989582;28;19926;-63
2023/08/26 13:43:25;;;;;;;;;;;22.60;1.00;;;;;;4985528;28;19926;-60
2023/08/26 13:45:52;;;;;;;;;;;22.70;1.00;;;;;;4987778;28;19929;-62
2023/08/26 13:48:19;;;;;;;;;;;22.70;1.00;;;;;;4989210;28;20012;-58
2023/08/26 13:50:46;;;;;;;;;;;22.70;1.00;;;;;;4988244;28;19927;-61
2023/08/26 13:53:13;;;;;;;;;;;22.70;1.00;;;;;;4987337;28;19926;-61
2023/08/26 13:55:39;;;;;;;;;;;22.70;1.00;;;;;;4988785;28;19933;-61
2023/08/26 13:58:08;;;;;;;;;;;22.70;1.00;;;;;;4987557;28;20017;-59
2023/08/26 14:00:35;;;;;;;;;;;22.70;1.00;;;;;;4992558;28;20016;-60
2023/08/26 14:03:03;;;;;;;;;;;22.70;1.00;;;;;;4992229;28;19934;-60
2023/08/26 14:05:30;;;;;;;;;;;22.70;1.00;;;;;;4984486;28;19926;-63
2023/08/26 14:07:57;;;;;;;;;;;22.80;1.00;;;;;;4992242;28;19926;-60
2023/08/26 14:10:24;;;;;;;;;;;22.80;1.00;;;;;;4988592;28;19926;-61
2023/08/26 14:12:51;;;;;;;;;;;22.80;1.00;;;;;;4985370;28;19976;-61
2023/08/26 14:15:17;;;;;;;;;;;22.80;1.00;;;;;;4988329;28;19925;-59
2023/08/26 14:17:44;;;;;;;;;;;22.80;1.00;;;;;;4987018;28;20334;-60
2023/08/26 14:20:14;;;;;;;;;;;22.80;1.00;;;;;;4987106;28;19962;-60
2023/08/26 14:22:40;;;;;;;;;;;22.80;1.00;;;;;;4992115;28;20468;-59
2023/08/26 14:25:09;;;;;;;;;;;22.80;1.00;;;;;;4988603;28;20028;-58
2023/08/26 14:27:36;;;;;;;;;;;22.80;1.00;;;;;;4991885;28;19926;-59
2023/08/26 14:30:03;;;;;;;;;;;22.90;1.00;;;;;;4997154;28;19930;-61
2023/08/26 14:32:30;;;;;;;;;;;22.80;1.00;;;;;;4996472;28;19926;-58
2023/08/26 14:34:57;;;;;;;;;;;22.90;1.00;;;;;;4994099;28;19965;-60
2023/08/26 14:37:23;;;;;;;;;;;22.90;1.00;;;;;;4996812;28;19926;-60
2023/08/26 14:39:50;;;;;;;;;;;22.90;1.00;;;;;;4996058;28;19933;-60
2023/08/26 14:42:17;;;;;;;;;;;22.90;1.00;;;;;;4995943;28;20420;-59
2023/08/26 14:44:44;;;;;;;;;;;22.90;1.00;;;;;;4992700;28;19926;-60
2023/08/26 14:47:11;;;;;;;;;;;22.90;1.00;;;;;;4990299;28;20364;-59
2023/08/26 14:49:37;;;;;;;;;;;23.00;1.00;;;;;;4995729;28;20345;-60
2023/08/26 14:52:04;;;;;;;;;;;23.00;1.00;;;;;;4995942;28;19926;-60
2023/08/26 14:54:31;;;;;;;;;;;22.90;1.00;;;;;;4995138;28;20028;-61
2023/08/26 14:56:59;;;;;;;;;;;22.90;1.00;;;;;;4993911;28;19926;-60
2023/08/26 14:59:26;;;;;;;;;;;23.00;1.00;;;;;;4995664;28;19933;-61
2023/08/26 15:01:52;;;;;;;;;;;23.00;1.00;;;;;;4995640;28;19933;-61
2023/08/26 15:04:19;;;;;;;;;;;23.00;1.00;;;;;;4995717;28;20440;-61
2023/08/26 15:06:46;;;;;;;;;;;23.00;1.00;;;;;;4994833;28;19930;-59
2023/08/26 15:09:13;;;;;;;;;;;23.00;1.00;;;;;;4989249;28;19930;-59
2023/08/26 15:11:40;;;;;;;;;;;23.00;1.00;;;;;;4994426;28;20040;-62